Gold Beach, OR

1:52 PM PDT on April 28, 2015 (GMT -0700)
RAWS | | Change Station
CLOSE
Current Station
Personal Weather Station
Location: Gold Beach, OR
Elevation: 1542 ft
Nearby Weather Stations

Elev 1542 ft 42.40 °N, 124.38 °W | Updated 39 minutes ago

Partly Cloudy
Partly Cloudy
48 °F
Feels Like 45 °F
N
7
Wind Variable Wind from North
Gusts 17.0 mph

Today
High -- | Low -- °F
--% Chance of Precip.
Yesterday
High -- | Low -- °F
Precip. -- in
6:16 AM 8:13 PM
Waxing Gibbous, 76% visible
Pressure 30.15 in
Visibility 7.0 miles
Clouds Few 900 ft
Windchill 45 °F
Dew Point 47 °F
Humidity 96%
Rainfall in
Snow Depth Not available.
UV 9 out of 12
Pollen 8.90 out of 12
Air Quality Not available.
Flu Activity Sporadic
METAR KBOK 281956Z AUTO 31010KT 7SM FEW009 14/13 A3014 RMK AO2 T01440127 RAB14E35 P0000 SLP208

More Conditions Fewer Conditions

Pressure 30.15 in
Visibility 7.0 miles
Clouds Few 900 ft
Windchill 45 °F
Dew Point 47 °F
Humidity 96%
Rainfall in
Snow Depth Not available.
UV 9 out of 12
Pollen 8.90 out of 12
Air Quality Not available.
Flu Activity Sporadic
METAR KBOK 281956Z AUTO 31010KT 7SM FEW009 14/13 A3014 RMK AO2 T01440127 RAB14E35 P0000 SLP208

More Conditions Fewer Conditions

10-Day Weather Forecast

Almanac

Astronomy

Apr. 28, 2015 Rise Set
Actual Time
Civil Twilight
Nautical Twilight
Astronomical Twilight
Moon
Length of Visible Light
Length of Day
Tomorrow will be .
, % of the Moon is Illuminated

Today's Extremes

State Highs State Lows

Community

WunderPhotos

Upload Photos

1,817,749 photos uploaded!

WunderBlogs® & News

Nearby

Air Quality

  Air Quality AQ Index Pollutant
Not available.

Snow Depth

Station Depth Elevation

Earthquake Activity

City Distance Mag. Time & Date
Minimum magnitude displayed is 2.5.

Coastal Water Temperatures

Place Temperature

Stations

Nearby Weather Stations

Station Location Temp. Windchill Dew Point Humidity Wind Precip. Elev Updated Type